createdAt,value
2023-01-27T00:01:02.479Z,36.05
2023-01-27T00:03:31.627Z,37.08
2023-01-27T00:06:01.330Z,40.35
2023-01-27T00:08:29.534Z,44.60
2023-01-27T00:11:13.394Z,45.10
2023-01-27T00:13:41.066Z,48.53
2023-01-27T00:16:08.860Z,40.90
2023-01-27T00:18:37.952Z,40.83
2023-01-27T00:21:23.638Z,51.03
2023-01-27T00:24:09.028Z,40.25
2023-01-27T00:26:36.704Z,42.97
2023-01-27T00:29:04.423Z,44.17
2023-01-27T00:31:49.932Z,39.28
2023-01-27T00:34:18.945Z,40.83
2023-01-27T00:36:46.583Z,40.30
2023-01-27T00:39:14.565Z,38.30
2023-01-27T00:41:42.350Z,34.08
2023-01-27T00:44:13.008Z,34.00
2023-01-27T00:46:41.004Z,35.20
2023-01-27T00:49:09.611Z,40.10
2023-01-27T00:51:38.655Z,39.00
2023-01-27T00:54:06.759Z,42.38
2023-01-27T00:56:35.033Z,41.03
2023-01-27T00:59:02.767Z,38.45
2023-01-27T01:01:30.856Z,40.78
2023-01-27T01:03:59.269Z,40.00
2023-01-27T01:06:28.142Z,38.28
2023-01-27T01:08:58.621Z,41.15
2023-01-27T01:11:27.567Z,37.35
2023-01-27T01:13:56.526Z,43.58
2023-01-27T01:16:25.682Z,36.88
2023-01-27T01:18:53.630Z,38.70
2023-01-27T01:21:21.315Z,44.38
2023-01-27T01:23:49.113Z,35.70
2023-01-27T01:26:18.756Z,33.78
2023-01-27T01:28:47.132Z,37.47
2023-01-27T01:31:17.048Z,38.40
2023-01-27T01:33:44.817Z,35.67
2023-01-27T01:36:15.215Z,39.95
2023-01-27T01:38:43.181Z,36.78
2023-01-27T01:41:13.970Z,46.08
2023-01-27T01:43:43.106Z,41.33
2023-01-27T01:46:11.846Z,40.00
2023-01-27T01:48:43.108Z,45.55
2023-01-27T01:51:14.131Z,44.50
2023-01-27T01:53:45.249Z,44.60
2023-01-27T01:56:16.852Z,44.00
2023-01-27T01:58:47.689Z,45.85
2023-01-27T02:01:17.585Z,39.47
2023-01-27T02:03:49.570Z,38.65
2023-01-27T02:06:17.913Z,41.80
2023-01-27T02:08:49.007Z,39.80
2023-01-27T02:11:17.030Z,42.78
2023-01-27T02:13:46.455Z,40.22
2023-01-27T02:16:14.748Z,38.92
2023-01-27T02:18:43.854Z,35.25
2023-01-27T02:21:11.534Z,46.08
2023-01-27T02:23:53.689Z,39.67
2023-01-27T02:26:26.657Z,39.15
2023-01-27T02:28:56.950Z,42.70
2023-01-27T02:31:25.371Z,36.10
2023-01-27T02:33:57.741Z,33.58
2023-01-27T02:36:28.164Z,34.85
2023-01-27T02:38:57.763Z,35.83
2023-01-27T02:41:31.440Z,32.08
2023-01-27T02:43:59.427Z,32.90
2023-01-27T02:46:27.191Z,29.65
2023-01-27T02:48:55.018Z,39.30
2023-01-27T02:51:22.847Z,29.80
2023-01-27T02:53:50.476Z,29.55
2023-01-27T02:56:18.160Z,34.38
2023-01-27T02:58:47.348Z,31.95
2023-01-27T03:01:15.131Z,32.03
2023-01-27T03:03:46.859Z,31.70
2023-01-27T03:06:14.957Z,31.30
2023-01-27T03:08:43.229Z,32.25
2023-01-27T03:11:11.869Z,25.85
2023-01-27T03:13:40.053Z,30.55
2023-01-27T03:16:27.332Z,26.83
2023-01-27T03:18:56.560Z,27.20
2023-01-27T03:21:24.276Z,29.63
2023-01-27T03:23:51.961Z,24.67
2023-01-27T03:26:19.594Z,28.05
2023-01-27T03:29:07.617Z,28.83
2023-01-27T03:31:36.880Z,29.33
2023-01-27T03:34:04.615Z,27.50
2023-01-27T03:36:49.791Z,29.98
2023-01-27T03:39:35.165Z,31.20
2023-01-27T03:42:20.298Z,28.20
2023-01-27T03:45:05.530Z,28.85
2023-01-27T03:47:34.519Z,28.95
2023-01-27T03:50:02.197Z,31.95
2023-01-27T03:52:29.887Z,28.30
2023-01-27T03:54:57.548Z,30.98
2023-01-27T03:57:25.188Z,34.83
2023-01-27T03:59:52.846Z,33.75
2023-01-27T04:02:37.933Z,32.78
2023-01-27T04:05:25.575Z,30.45
2023-01-27T04:07:53.247Z,33.50
2023-01-27T04:10:20.988Z,31.65
2023-01-27T04:12:49.240Z,30.88
2023-01-27T04:15:17.399Z,30.30
2023-01-27T04:17:45.026Z,29.50
2023-01-27T04:20:14.483Z,33.70
2023-01-27T04:22:42.161Z,25.15
2023-01-27T04:25:12.366Z,26.60
2023-01-27T04:27:41.500Z,28.77
2023-01-27T04:30:10.861Z,30.80
2023-01-27T04:32:38.548Z,28.52
2023-01-27T04:35:06.682Z,27.63
2023-01-27T04:37:35.674Z,28.45
2023-01-27T04:40:03.577Z,30.27
2023-01-27T04:42:31.182Z,33.30
2023-01-27T04:44:58.837Z,40.13
2023-01-27T04:47:26.512Z,38.53
2023-01-27T04:49:54.160Z,33.28
2023-01-27T04:52:21.819Z,42.25
2023-01-27T04:54:50.838Z,39.83
2023-01-27T04:57:18.620Z,43.15
2023-01-27T04:59:46.246Z,43.03
2023-01-27T05:02:13.929Z,40.33
2023-01-27T05:04:41.686Z,39.15
2023-01-27T05:07:10.822Z,42.55
2023-01-27T05:09:38.440Z,41.22
2023-01-27T05:12:07.827Z,46.30
2023-01-27T05:14:35.521Z,44.95
2023-01-27T05:17:03.245Z,45.03
2023-01-27T05:19:30.876Z,42.78
2023-01-27T05:21:58.829Z,48.42
2023-01-27T05:24:26.574Z,42.83
2023-01-27T05:26:54.506Z,46.42
2023-01-27T05:29:23.604Z,44.53
2023-01-27T05:31:51.276Z,42.17
2023-01-27T05:34:19.219Z,46.92
2023-01-27T05:36:46.918Z,44.45
2023-01-27T05:39:14.778Z,51.45
2023-01-27T05:41:42.600Z,45.88
2023-01-27T05:44:12.955Z,45.28
2023-01-27T05:46:42.917Z,50.95
2023-01-27T05:49:10.569Z,42.78
2023-01-27T05:51:40.614Z,44.65
2023-01-27T05:54:09.429Z,44.42
2023-01-27T05:56:37.409Z,45.33
2023-01-27T05:59:05.111Z,45.10
2023-01-27T06:01:37.350Z,42.17
2023-01-27T06:04:07.240Z,42.92
2023-01-27T06:06:35.084Z,51.53
2023-01-27T06:09:03.322Z,38.83
2023-01-27T06:11:32.118Z,41.65
2023-01-27T06:13:59.934Z,43.83
2023-01-27T06:16:27.901Z,38.65
2023-01-27T06:18:55.749Z,42.65
2023-01-27T06:21:25.039Z,37.90
2023-01-27T06:23:53.533Z,44.97
2023-01-27T06:26:21.435Z,35.13
2023-01-27T06:28:49.330Z,44.55
2023-01-27T06:31:19.941Z,47.20
2023-01-27T06:33:47.861Z,45.25
2023-01-27T06:36:17.756Z,38.47
2023-01-27T06:38:47.069Z,36.13
2023-01-27T06:41:15.091Z,36.22
2023-01-27T06:43:42.979Z,36.42
2023-01-27T06:46:10.713Z,40.17
2023-01-27T06:48:39.136Z,34.30
2023-01-27T06:51:07.819Z,40.70
2023-01-27T06:53:37.341Z,37.83
2023-01-27T06:56:07.571Z,40.42
2023-01-27T06:58:35.245Z,36.05
2023-01-27T07:01:05.429Z,34.53
2023-01-27T07:06:00.665Z,39.22
2023-01-27T07:08:28.448Z,41.03
2023-01-27T07:10:56.177Z,39.72
2023-01-27T07:13:25.190Z,42.80
2023-01-27T07:15:56.502Z,39.35
2023-01-27T07:18:24.595Z,37.00
2023-01-27T07:20:52.354Z,41.58
2023-01-27T07:23:20.360Z,36.28
2023-01-27T07:25:48.059Z,37.97
2023-01-27T07:28:15.984Z,35.88
2023-01-27T07:30:46.131Z,40.53
2023-01-27T07:33:15.326Z,36.28
2023-01-27T07:35:43.564Z,36.85
2023-01-27T07:38:13.232Z,37.58
2023-01-27T07:40:40.932Z,36.85
2023-01-27T07:43:08.670Z,38.92
2023-01-27T07:45:36.670Z,39.47
2023-01-27T07:48:07.939Z,41.10
2023-01-27T07:50:36.195Z,40.38
2023-01-27T07:53:05.824Z,39.47
2023-01-27T07:55:34.418Z,37.92
2023-01-27T07:58:02.525Z,38.70
2023-01-27T08:00:30.733Z,34.28
2023-01-27T08:03:00.326Z,35.47
2023-01-27T08:05:32.862Z,33.70
2023-01-27T08:08:03.802Z,34.75
2023-01-27T08:10:31.655Z,37.58
2023-01-27T08:12:59.368Z,37.30
2023-01-27T08:15:27.202Z,30.23
2023-01-27T08:17:56.085Z,34.90
2023-01-27T08:20:24.425Z,34.83
2023-01-27T08:22:53.675Z,30.08
2023-01-27T08:25:21.509Z,34.10
2023-01-27T08:27:51.706Z,26.45
2023-01-27T08:30:20.258Z,28.42
2023-01-27T08:32:48.193Z,31.65
2023-01-27T08:35:16.304Z,30.13
2023-01-27T08:37:44.157Z,28.90
2023-01-27T08:40:15.672Z,35.40
2023-01-27T08:42:43.531Z,31.83
2023-01-27T08:45:11.414Z,28.20
2023-01-27T08:47:39.092Z,33.53
2023-01-27T08:50:07.501Z,35.92
2023-01-27T08:52:35.247Z,32.30
2023-01-27T08:55:02.945Z,33.78
2023-01-27T08:57:34.236Z,34.33
2023-01-27T09:00:04.250Z,36.13
2023-01-27T09:02:31.915Z,27.30
2023-01-27T09:04:59.734Z,29.58
2023-01-27T09:07:27.518Z,35.55
2023-01-27T09:10:07.769Z,33.83
2023-01-27T09:12:42.575Z,33.72
2023-01-27T09:15:11.507Z,30.75
2023-01-27T09:17:39.219Z,29.60
2023-01-27T09:20:07.836Z,32.97
2023-01-27T09:22:36.636Z,27.77
2023-01-27T09:25:04.599Z,28.30
2023-01-27T09:27:39.160Z,32.60
2023-01-27T09:30:11.628Z,34.80
2023-01-27T09:32:39.880Z,34.83
2023-01-27T09:35:08.566Z,34.50
2023-01-27T09:37:41.145Z,34.97
2023-01-27T09:40:18.194Z,38.10
2023-01-27T09:43:08.130Z,36.17
2023-01-27T09:45:47.793Z,36.58
2023-01-27T09:48:37.512Z,38.80
2023-01-27T09:51:16.139Z,35.30
2023-01-27T09:54:16.240Z,34.28
2023-01-27T09:56:50.851Z,34.35
2023-01-27T09:59:42.336Z,34.90
2023-01-27T10:02:31.892Z,38.08
2023-01-27T10:05:17.567Z,41.42
2023-01-27T10:08:00.532Z,41.47
2023-01-27T10:10:39.484Z,43.05
2023-01-27T10:13:18.982Z,39.60
2023-01-27T10:16:00.992Z,43.35
2023-01-27T10:18:44.012Z,41.13
2023-01-27T10:21:21.084Z,35.90
2023-01-27T10:23:59.234Z,37.83
2023-01-27T10:26:32.461Z,34.78
2023-01-27T10:29:09.582Z,32.90
2023-01-27T10:31:38.919Z,38.30
2023-01-27T10:34:19.122Z,33.15
2023-01-27T10:36:57.099Z,27.65
2023-01-27T10:39:36.072Z,30.35
2023-01-27T10:42:11.112Z,30.73
2023-01-27T10:44:55.082Z,29.13
2023-01-27T10:47:33.458Z,24.02
2023-01-27T10:50:04.985Z,30.75
2023-01-27T10:52:39.467Z,33.05
2023-01-27T10:55:16.226Z,28.95
2023-01-27T10:57:50.722Z,27.38
2023-01-27T11:00:57.560Z,32.08
2023-01-27T11:03:23.450Z,28.63
2023-01-27T11:05:54.756Z,30.58
2023-01-27T11:08:26.857Z,32.55
2023-01-27T11:11:15.530Z,28.10
2023-01-27T11:13:43.639Z,29.23
2023-01-27T11:16:16.715Z,27.10
2023-01-27T11:18:46.652Z,25.83
2023-01-27T11:21:20.485Z,24.10
2023-01-27T11:23:51.953Z,28.15
2023-01-27T11:26:31.384Z,29.35
2023-01-27T11:29:11.289Z,24.88
2023-01-27T11:31:49.572Z,25.50
2023-01-27T11:34:22.639Z,25.65
2023-01-27T11:36:51.953Z,35.10
2023-01-27T11:39:20.202Z,32.38
2023-01-27T11:41:51.822Z,29.77
2023-01-27T11:44:22.010Z,26.70
2023-01-27T11:46:50.350Z,25.10
2023-01-27T11:49:23.701Z,24.75
2023-01-27T11:51:52.805Z,24.75
2023-01-27T11:54:25.004Z,27.58
2023-01-27T11:56:52.788Z,25.70
2023-01-27T11:59:25.903Z,24.73
2023-01-27T12:01:57.750Z,30.60
2023-01-27T12:04:35.871Z,26.38
2023-01-27T12:07:09.616Z,24.60
2023-01-27T12:09:38.771Z,28.25
2023-01-27T12:12:12.874Z,23.35
2023-01-27T12:14:40.989Z,29.77
2023-01-27T12:17:09.401Z,21.67
2023-01-27T12:19:41.888Z,23.65
2023-01-27T12:22:21.404Z,28.75
2023-01-27T12:24:53.836Z,29.65
2023-01-27T12:27:24.445Z,26.48
2023-01-27T12:29:55.952Z,22.88
2023-01-27T12:32:29.055Z,26.80
2023-01-27T12:34:57.073Z,26.30
2023-01-27T12:37:30.465Z,26.23
2023-01-27T12:40:02.762Z,34.72
2023-01-27T12:42:41.457Z,30.85
2023-01-27T12:45:20.591Z,36.00
2023-01-27T12:48:00.662Z,30.05
2023-01-27T12:50:30.234Z,37.08
2023-01-27T12:53:13.770Z,31.20
2023-01-27T12:55:44.955Z,28.20
2023-01-27T12:58:35.378Z,37.05
2023-01-27T13:01:06.003Z,34.17
2023-01-27T13:03:40.146Z,33.47
2023-01-27T13:06:08.395Z,28.60
2023-01-27T13:08:41.440Z,31.98
2023-01-27T13:11:09.389Z,46.40
2023-01-27T13:13:37.195Z,32.65
2023-01-27T13:16:15.907Z,30.25
2023-01-27T13:18:43.809Z,28.27
2023-01-27T13:21:16.082Z,27.10
2023-01-27T13:23:48.918Z,31.48
2023-01-27T13:26:20.882Z,30.60
2023-01-27T13:28:53.580Z,32.30
2023-01-27T13:31:34.397Z,34.60
2023-01-27T13:34:07.348Z,39.78
2023-01-27T13:36:45.666Z,31.95
2023-01-27T13:39:19.883Z,39.10
2023-01-27T13:41:55.750Z,32.33
2023-01-27T13:44:31.426Z,36.85
2023-01-27T13:47:03.748Z,36.45
2023-01-27T13:49:37.960Z,32.42
2023-01-27T13:52:07.292Z,35.97
2023-01-27T13:54:36.371Z,41.47
2023-01-27T13:57:21.449Z,38.40
2023-01-27T13:59:59.448Z,38.50
2023-01-27T14:03:16.236Z,36.45
2023-01-27T14:06:03.218Z,36.38
2023-01-27T14:08:51.910Z,33.42
2023-01-27T14:11:30.975Z,36.65
2023-01-27T14:14:18.319Z,42.50
2023-01-27T14:17:00.566Z,38.90
2023-01-27T14:19:40.748Z,37.22
2023-01-27T14:22:17.556Z,40.70
2023-01-27T14:24:53.561Z,36.55
2023-01-27T14:27:27.606Z,39.15
2023-01-27T14:30:05.291Z,35.55
2023-01-27T14:32:40.565Z,36.10
2023-01-27T14:35:22.597Z,37.05
2023-01-27T14:37:58.835Z,39.00
2023-01-27T14:40:31.365Z,43.25
2023-01-27T14:43:15.763Z,40.80
2023-01-27T14:45:49.001Z,39.42
2023-01-27T14:48:31.477Z,39.83
2023-01-27T14:51:09.084Z,39.92
2023-01-27T14:53:49.833Z,36.10
2023-01-27T14:56:33.619Z,36.00
2023-01-27T14:59:11.640Z,32.47
2023-01-27T15:01:49.126Z,33.67
2023-01-27T15:04:27.674Z,32.45
2023-01-27T15:06:59.796Z,32.35
2023-01-27T15:09:45.816Z,33.53
2023-01-27T15:12:30.980Z,32.53
2023-01-27T15:15:46.172Z,32.95
2023-01-27T15:18:30.805Z,31.23
2023-01-27T15:21:18.327Z,36.33
2023-01-27T15:24:19.698Z,32.35
2023-01-27T15:26:49.131Z,34.10
2023-01-27T15:29:28.838Z,31.05
2023-01-27T15:32:25.876Z,33.75
2023-01-27T15:35:17.242Z,31.90
2023-01-27T15:38:00.262Z,29.27
2023-01-27T15:40:47.417Z,31.67
2023-01-27T15:43:16.651Z,28.33
2023-01-27T15:45:48.146Z,29.30
2023-01-27T15:48:22.290Z,28.92
2023-01-27T15:50:57.602Z,29.65
2023-01-27T15:53:32.373Z,38.75
2023-01-27T15:56:02.466Z,24.13
2023-01-27T15:58:35.569Z,28.88
2023-01-27T16:01:05.763Z,25.25
2023-01-27T16:03:39.754Z,26.92
2023-01-27T16:06:12.386Z,28.30
2023-01-27T16:08:43.355Z,26.05
2023-01-27T16:11:39.902Z,25.58
2023-01-27T16:14:32.643Z,26.38
2023-01-27T16:17:04.886Z,31.90
2023-01-27T16:19:40.771Z,26.65
2023-01-27T16:22:14.857Z,30.42
2023-01-27T16:24:45.377Z,26.65
2023-01-27T16:27:25.508Z,28.17
2023-01-27T16:29:59.249Z,25.80
2023-01-27T16:32:36.632Z,24.88
2023-01-27T16:35:07.830Z,27.98
2023-01-27T16:37:40.537Z,26.40
2023-01-27T16:40:16.658Z,28.05
2023-01-27T16:42:55.229Z,25.02
2023-01-27T16:45:27.661Z,25.73
2023-01-27T16:47:59.778Z,27.92
2023-01-27T16:50:37.838Z,27.63
2023-01-27T16:53:13.676Z,21.60
2023-01-27T16:55:41.424Z,26.70
2023-01-27T16:58:19.724Z,24.58
2023-01-27T17:00:50.869Z,37.78
2023-01-27T17:03:21.913Z,24.45
2023-01-27T17:05:52.959Z,22.13
2023-01-27T17:08:23.509Z,25.08
2023-01-27T17:10:53.032Z,34.00
2023-01-27T17:13:29.069Z,27.10
2023-01-27T17:15:58.066Z,25.05
2023-01-27T17:18:26.439Z,25.60
2023-01-27T17:20:54.477Z,29.08
2023-01-27T17:23:30.453Z,25.42
2023-01-27T17:25:58.556Z,29.45
2023-01-27T17:28:28.914Z,28.50
2023-01-27T17:31:06.219Z,33.13
2023-01-27T17:33:37.082Z,23.00
2023-01-27T17:36:10.876Z,23.10
2023-01-27T17:38:46.270Z,22.30
2023-01-27T17:41:30.019Z,24.13
2023-01-27T17:44:01.548Z,23.42
2023-01-27T17:46:32.727Z,20.60
2023-01-27T17:49:04.162Z,25.02
2023-01-27T17:51:37.656Z,30.17
2023-01-27T17:54:19.988Z,23.30
2023-01-27T17:56:49.467Z,23.77
2023-01-27T17:59:21.095Z,25.67
2023-01-27T18:01:52.762Z,19.90
2023-01-27T18:04:21.294Z,22.77
2023-01-27T18:06:51.203Z,26.95
2023-01-27T18:09:25.569Z,21.83
2023-01-27T18:11:58.949Z,20.05
2023-01-27T18:14:27.113Z,21.58
2023-01-27T18:17:06.202Z,20.88
2023-01-27T18:19:34.884Z,24.27
2023-01-27T18:22:13.531Z,22.77
2023-01-27T18:24:50.074Z,25.85
2023-01-27T18:27:27.155Z,20.38
2023-01-27T18:30:00.173Z,27.45
2023-01-27T18:32:31.810Z,21.52
2023-01-27T18:34:59.934Z,27.95
2023-01-27T18:37:30.378Z,22.70
2023-01-27T18:40:00.785Z,18.98
2023-01-27T18:42:31.292Z,26.60
2023-01-27T18:44:59.219Z,24.67
2023-01-27T18:47:29.742Z,27.35
2023-01-27T18:50:03.447Z,28.83
2023-01-27T18:52:31.499Z,46.35
2023-01-27T18:55:03.688Z,22.77
2023-01-27T18:57:31.477Z,19.02
2023-01-27T18:59:59.176Z,21.02
2023-01-27T19:02:27.017Z,15.75
2023-01-27T19:04:54.874Z,19.42
2023-01-27T19:07:22.631Z,18.70
2023-01-27T19:09:50.543Z,18.17
2023-01-27T19:12:19.842Z,19.15
2023-01-27T19:14:48.755Z,26.92
2023-01-27T19:17:23.919Z,23.55
2023-01-27T19:19:51.823Z,22.77
2023-01-27T19:22:20.864Z,18.17
2023-01-27T19:24:50.481Z,19.50
2023-01-27T19:27:20.370Z,17.55
2023-01-27T19:29:48.164Z,19.60
2023-01-27T19:32:16.230Z,21.45
2023-01-27T19:34:44.027Z,27.33
2023-01-27T19:37:18.267Z,20.45
2023-01-27T19:39:46.066Z,19.85
2023-01-27T19:42:16.471Z,18.65
2023-01-27T19:44:45.589Z,17.65
2023-01-27T19:47:14.782Z,24.55
2023-01-27T19:49:42.525Z,19.35
2023-01-27T19:52:10.891Z,19.63
2023-01-27T19:54:38.789Z,16.85
2023-01-27T19:57:07.232Z,18.90
2023-01-27T19:59:35.121Z,18.00
2023-01-27T20:02:04.185Z,16.20
2023-01-27T20:04:32.035Z,20.25
2023-01-27T20:06:59.865Z,18.42
2023-01-27T20:09:27.571Z,16.33
2023-01-27T20:11:55.297Z,19.88
2023-01-27T20:14:25.813Z,17.98
2023-01-27T20:16:53.607Z,19.52
2023-01-27T20:19:23.026Z,23.02
2023-01-27T20:21:51.062Z,16.92
2023-01-27T20:24:20.051Z,18.80
2023-01-27T20:26:48.041Z,20.42
2023-01-27T20:29:15.925Z,18.00
2023-01-27T20:31:43.717Z,17.08
2023-01-27T20:34:11.588Z,19.35
2023-01-27T20:36:40.634Z,17.05
2023-01-27T20:39:08.348Z,15.43
2023-01-27T20:41:36.050Z,19.70
2023-01-27T20:44:03.832Z,17.30
2023-01-27T20:46:31.569Z,16.27
2023-01-27T20:49:00.367Z,15.07
2023-01-27T20:51:28.262Z,19.05
2023-01-27T20:54:00.103Z,15.65
2023-01-27T20:56:28.034Z,17.23
2023-01-27T20:58:55.786Z,22.35
2023-01-27T21:01:25.155Z,22.92
2023-01-27T21:03:53.092Z,16.00
2023-01-27T21:06:21.138Z,14.38
2023-01-27T21:08:49.291Z,13.85
2023-01-27T21:11:20.550Z,17.73
2023-01-27T21:13:48.964Z,16.52
2023-01-27T21:16:17.017Z,17.77
2023-01-27T21:18:45.077Z,16.63
2023-01-27T21:21:23.269Z,14.73
2023-01-27T21:23:51.248Z,13.18
2023-01-27T21:26:20.467Z,18.77
2023-01-27T21:28:48.274Z,16.90
2023-01-27T21:31:18.099Z,18.20
2023-01-27T21:33:48.069Z,20.52
2023-01-27T21:36:15.866Z,17.25
2023-01-27T21:38:44.567Z,18.40
2023-01-27T21:41:14.574Z,18.25
2023-01-27T21:44:01.413Z,26.00
2023-01-27T21:46:29.114Z,16.35
2023-01-27T21:48:56.806Z,19.08
2023-01-27T21:51:24.523Z,13.10
2023-01-27T21:53:52.383Z,15.38
2023-01-27T21:56:20.054Z,14.63
2023-01-27T21:58:49.069Z,13.75
2023-01-27T22:01:16.868Z,14.27
2023-01-27T22:03:44.724Z,15.90
2023-01-27T22:06:12.495Z,16.17
2023-01-27T22:08:40.234Z,16.48
2023-01-27T22:11:12.411Z,15.70
2023-01-27T22:13:40.657Z,14.02
2023-01-27T22:16:14.975Z,14.18
2023-01-27T22:18:42.963Z,15.82
2023-01-27T22:21:11.235Z,16.45
2023-01-27T22:23:39.274Z,14.45
2023-01-27T22:26:09.175Z,20.15
2023-01-27T22:28:36.952Z,13.57
2023-01-27T22:31:04.835Z,14.57
2023-01-27T22:33:36.420Z,17.77
2023-01-27T22:36:06.893Z,16.48
2023-01-27T22:38:38.653Z,17.38
2023-01-27T22:41:06.611Z,13.32
2023-01-27T22:43:34.323Z,16.02
2023-01-27T22:46:02.965Z,18.00
2023-01-27T22:48:31.439Z,16.98
2023-01-27T22:51:04.405Z,14.73
2023-01-27T22:53:32.643Z,15.43
2023-01-27T22:56:02.104Z,15.05
2023-01-27T22:58:30.797Z,14.73
2023-01-27T23:00:58.857Z,14.95
2023-01-27T23:03:26.782Z,17.75
2023-01-27T23:05:54.507Z,17.35
2023-01-27T23:08:23.522Z,18.58
2023-01-27T23:10:51.294Z,17.73
2023-01-27T23:13:18.982Z,13.68
2023-01-27T23:15:46.715Z,13.32
2023-01-27T23:18:14.448Z,12.25
2023-01-27T23:20:43.543Z,15.43
2023-01-27T23:23:11.588Z,16.20
2023-01-27T23:25:45.155Z,15.13
2023-01-27T23:28:13.339Z,14.25
2023-01-27T23:30:43.902Z,14.85
2023-01-27T23:33:12.221Z,13.23
2023-01-27T23:35:40.486Z,14.38
2023-01-27T23:38:19.312Z,12.40
2023-01-27T23:40:55.545Z,14.07
2023-01-27T23:43:24.579Z,20.35
2023-01-27T23:45:53.236Z,15.05
2023-01-27T23:48:21.682Z,13.10
2023-01-27T23:50:49.870Z,16.73
2023-01-27T23:53:18.334Z,12.68
2023-01-27T23:55:46.058Z,12.15
2023-01-27T23:58:15.148Z,14.55
